Time;durP1;ratioP1;P1;durP2;ratioP2;P2;SDS_P1;SDS_P2;PMS_P1;PMS_P2;Temp;Humidity;BMP_temperature;BMP_pressure;BME280_temperature;BME280_humidity;BME280_pressure;Samples;Min_cycle;Max_cycle;Signal;HPM_P1;HPM_P2
2021/07/01 00:00:39;;;;;;;0.90;0.70;;;19.50;91.40;;;;;;6269300;28;20238;-63
2021/07/01 00:03:43;;;;;;;1.90;0.53;;;19.30;91.90;;;;;;6268339;28;20357;-63
2021/07/01 00:06:47;;;;;;;0.80;0.77;;;19.20;92.10;;;;;;6269172;28;20223;-64
2021/07/01 00:09:52;;;;;;;1.23;0.53;;;19.20;91.70;;;;;;6271613;28;20223;-64
2021/07/01 00:12:55;;;;;;;1.73;1.07;;;19.20;91.90;;;;;;6272683;28;20671;-64
2021/07/01 00:15:59;;;;;;;1.17;0.83;;;19.20;92.10;;;;;;6274007;28;20675;-64
2021/07/01 00:19:02;;;;;;;1.00;0.83;;;19.10;91.10;;;;;;6273852;28;20231;-64
2021/07/01 00:22:06;;;;;;;1.17;0.77;;;19.10;91.50;;;;;;6274019;28;20310;-64
2021/07/01 00:25:13;;;;;;;1.00;0.90;;;19.10;91.20;;;;;;6274541;28;20253;-64
2021/07/01 00:28:16;;;;;;;2.30;1.20;;;19.00;91.00;;;;;;6273565;28;20235;-64
2021/07/01 00:31:20;;;;;;;1.27;0.87;;;18.90;91.30;;;;;;6273664;28;20227;-64
2021/07/01 00:34:23;;;;;;;0.80;0.53;;;18.90;91.40;;;;;;6273923;28;20231;-64
2021/07/01 00:37:29;;;;;;;1.47;0.60;;;18.90;91.30;;;;;;6274235;28;20239;-64
2021/07/01 00:40:34;;;;;;;1.50;0.80;;;18.90;91.30;;;;;;6274366;28;20692;-65
2021/07/01 00:43:37;;;;;;;1.57;0.90;;;18.80;91.10;;;;;;6274582;28;20675;-64
2021/07/01 00:46:41;;;;;;;0.80;0.80;;;18.80;91.20;;;;;;6274344;28;20285;-64
2021/07/01 00:49:44;;;;;;;2.30;0.87;;;18.80;91.20;;;;;;6273988;28;20984;-64
2021/07/01 00:52:47;;;;;;;0.80;0.60;;;18.70;91.10;;;;;;6274041;28;20644;-65
2021/07/01 00:55:52;;;;;;;0.90;0.70;;;18.60;91.30;;;;;;6273998;28;20477;-64
2021/07/01 00:58:57;;;;;;;1.20;0.73;;;18.60;91.20;;;;;;6268627;28;20309;-64
2021/07/01 01:02:01;;;;;;;1.27;0.90;;;18.50;91.20;;;;;;6272568;28;20474;-64
2021/07/01 01:05:05;;;;;;;1.00;0.83;;;18.50;91.10;;;;;;6272970;28;20473;-64
2021/07/01 01:08:09;;;;;;;0.93;0.70;;;18.50;91.10;;;;;;6275606;28;20233;-64
2021/07/01 01:11:14;;;;;;;2.73;1.10;;;18.50;91.20;;;;;;6278286;28;20478;-64
2021/07/01 01:14:18;;;;;;;1.10;0.80;;;18.50;90.70;;;;;;6279595;28;20455;-64
2021/07/01 01:17:21;;;;;;;1.33;0.80;;;18.50;90.60;;;;;;6278208;28;20954;-64
2021/07/01 01:20:25;;;;;;;1.13;0.80;;;18.50;90.40;;;;;;6278608;28;20491;-64
2021/07/01 01:23:32;;;;;;;2.10;1.00;;;18.50;90.60;;;;;;6277464;28;20856;-64
2021/07/01 01:26:35;;;;;;;1.27;0.80;;;18.50;91.00;;;;;;6277965;28;20462;-64
2021/07/01 01:29:38;;;;;;;1.63;1.07;;;18.50;90.80;;;;;;6278790;28;20469;-63
2021/07/01 01:32:42;;;;;;;2.70;1.10;;;18.50;91.00;;;;;;6278472;28;20861;-64
2021/07/01 01:35:45;;;;;;;1.70;0.80;;;18.40;91.00;;;;;;6278467;28;20462;-63
2021/07/01 01:38:50;;;;;;;1.70;1.03;;;18.40;91.30;;;;;;6277289;28;20231;-64
2021/07/01 01:41:53;;;;;;;1.30;0.90;;;18.30;91.40;;;;;;6278523;28;20484;-64
2021/07/01 01:44:57;;;;;;;1.93;1.10;;;18.30;91.50;;;;;;6277822;28;20485;-64
2021/07/01 01:48:00;;;;;;;1.77;1.20;;;18.10;91.90;;;;;;6277955;28;20521;-64
2021/07/01 01:51:03;;;;;;;2.03;0.87;;;18.10;92.50;;;;;;6277706;28;20474;-64
2021/07/01 01:54:08;;;;;;;2.10;1.07;;;18.10;92.80;;;;;;6278079;28;20482;-64
2021/07/01 01:57:12;;;;;;;1.20;1.10;;;18.00;92.90;;;;;;6278101;28;20987;-64
2021/07/01 02:00:26;;;;;;;1.37;0.67;;;18.00;93.50;;;;;;6277945;28;20485;-64
2021/07/01 02:03:29;;;;;;;1.87;0.90;;;17.80;93.90;;;;;;6267982;28;20470;-64
2021/07/01 02:06:34;;;;;;;0.77;0.77;;;17.80;94.10;;;;;;6278030;28;20488;-64
2021/07/01 02:09:38;;;;;;;1.40;0.90;;;17.60;94.50;;;;;;6277312;28;20478;-64
2021/07/01 02:12:42;;;;;;;0.87;0.77;;;17.60;94.30;;;;;;6277585;28;20812;-64
2021/07/01 02:15:45;;;;;;;2.60;0.93;;;17.50;94.40;;;;;;6277671;28;20477;-63
2021/07/01 02:18:51;;;;;;;0.80;0.80;;;17.60;94.40;;;;;;6275997;28;20459;-63
2021/07/01 02:21:54;;;;;;;1.20;0.80;;;17.60;94.10;;;;;;6277231;28;20477;-64
2021/07/01 02:24:59;;;;;;;1.80;1.20;;;17.60;93.90;;;;;;6277159;28;20473;-64
2021/07/01 02:28:02;;;;;;;1.77;0.77;;;17.50;94.10;;;;;;6276933;28;20954;-63
2021/07/01 02:31:05;;;;;;;1.13;0.77;;;17.50;94.60;;;;;;6277292;28;20474;-64
2021/07/01 02:34:09;;;;;;;1.10;0.83;;;17.50;94.80;;;;;;6277019;28;20938;-64
2021/07/01 02:37:13;;;;;;;1.03;0.93;;;17.40;94.80;;;;;;6277443;28;20482;-64
2021/07/01 02:40:18;;;;;;;1.53;0.77;;;17.50;94.80;;;;;;6277238;28;20800;-64
2021/07/01 02:43:21;;;;;;;0.80;0.73;;;17.50;95.10;;;;;;6276741;28;20481;-64
2021/07/01 02:46:25;;;;;;;0.90;0.70;;;17.50;95.10;;;;;;6277025;28;20477;-64
2021/07/01 02:49:29;;;;;;;1.53;0.77;;;17.40;95.20;;;;;;6276645;28;20483;-64
2021/07/01 02:52:32;;;;;;;1.63;1.07;;;17.40;95.10;;;;;;6277030;28;20531;-65
2021/07/01 02:55:37;;;;;;;3.70;1.17;;;17.40;94.90;;;;;;6276122;28;20489;-64
2021/07/01 02:58:41;;;;;;;2.63;0.90;;;17.30;95.10;;;;;;6276775;28;21210;-64
2021/07/01 03:01:44;;;;;;;1.10;0.87;;;17.40;95.20;;;;;;6276239;28;20491;-64
2021/07/01 03:04:48;;;;;;;1.73;1.00;;;17.30;95.10;;;;;;6276553;28;20466;-64
2021/07/01 03:07:51;;;;;;;2.90;1.00;;;17.20;95.40;;;;;;6271941;28;20478;-64
2021/07/01 03:10:55;;;;;;;1.27;1.03;;;17.10;95.40;;;;;;6276349;28;20810;-65
2021/07/01 03:13:59;;;;;;;1.77;0.90;;;17.10;95.70;;;;;;6276109;28;20988;-65
2021/07/01 03:17:03;;;;;;;1.47;1.07;;;17.10;96.00;;;;;;6275807;28;20556;-64
2021/07/01 03:20:08;;;;;;;1.47;0.87;;;17.10;95.90;;;;;;6276013;28;20567;-64
2021/07/01 03:23:12;;;;;;;2.00;1.00;;;17.10;95.90;;;;;;6275794;28;20512;-64
2021/07/01 03:26:17;;;;;;;1.53;0.80;;;17.10;96.00;;;;;;6275907;28;20466;-64
2021/07/01 03:29:22;;;;;;;3.83;1.17;;;17.20;96.10;;;;;;6275419;28;20454;-65
2021/07/01 03:32:25;;;;;;;2.30;1.20;;;17.10;96.00;;;;;;6275457;28;20446;-64
2021/07/01 03:35:28;;;;;;;2.83;1.47;;;17.20;96.10;;;;;;6275530;28;20932;-64
2021/07/01 03:38:33;;;;;;;2.03;1.63;;;17.20;96.10;;;;;;6275580;28;20632;-64
2021/07/01 03:41:38;;;;;;;2.60;1.23;;;17.20;95.80;;;;;;6275002;28;20489;-64
2021/07/01 03:44:41;;;;;;;1.77;1.27;;;17.20;95.70;;;;;;6275322;28;20545;-64
2021/07/01 03:47:44;;;;;;;1.10;0.90;;;17.10;95.90;;;;;;6275340;28;20809;-64
2021/07/01 03:50:48;;;;;;;1.70;1.00;;;17.10;96.00;;;;;;6275303;28;20516;-64
2021/07/01 03:53:51;;;;;;;1.70;0.90;;;17.00;95.90;;;;;;6274859;28;20958;-64
2021/07/01 03:56:58;;;;;;;1.73;0.90;;;17.10;96.00;;;;;;6275397;28;20589;-64
2021/07/01 04:00:03;;;;;;;1.20;1.10;;;17.20;96.10;;;;;;6274922;28;20482;-64
2021/07/01 04:03:06;;;;;;;1.10;1.00;;;17.20;95.70;;;;;;6274884;28;20472;-64
2021/07/01 04:06:10;;;;;;;1.83;1.00;;;17.30;95.80;;;;;;6275370;28;20527;-64
2021/07/01 04:09:13;;;;;;;1.70;1.10;;;17.30;95.40;;;;;;6270967;28;20474;-65
2021/07/01 04:12:18;;;;;;;3.43;1.27;;;17.30;95.30;;;;;;6275336;28;20477;-64
2021/07/01 04:15:22;;;;;;;1.93;1.20;;;17.30;95.30;;;;;;6275143;28;20470;-64
2021/07/01 04:18:26;;;;;;;3.90;1.80;;;17.30;95.20;;;;;;6274436;28;20470;-64
2021/07/01 04:21:29;;;;;;;2.10;1.43;;;17.30;95.90;;;;;;6274312;28;20469;-64
2021/07/01 04:24:32;;;;;;;3.57;1.57;;;17.30;96.40;;;;;;6274084;28;20796;-64
2021/07/01 04:27:37;;;;;;;2.33;1.30;;;17.30;96.70;;;;;;6274860;28;20485;-64
2021/07/01 04:30:41;;;;;;;2.40;1.27;;;17.40;96.70;;;;;;6275277;28;20974;-64
2021/07/01 04:33:44;;;;;;;3.43;1.43;;;17.40;96.70;;;;;;6274229;28;20470;-64
2021/07/01 04:36:47;;;;;;;1.40;1.30;;;17.50;96.80;;;;;;6274311;28;20489;-64
2021/07/01 04:39:51;;;;;;;1.53;1.30;;;17.60;96.90;;;;;;6274351;28;20555;-64
2021/07/01 04:42:57;;;;;;;1.43;1.30;;;17.60;96.90;;;;;;6276393;28;20499;-64
2021/07/01 04:46:00;;;;;;;2.03;1.60;;;17.70;96.30;;;;;;6279314;28;20481;-64
2021/07/01 04:49:04;;;;;;;1.37;1.20;;;17.70;96.40;;;;;;6279253;28;20477;-64
2021/07/01 04:52:08;;;;;;;1.50;1.40;;;17.70;96.80;;;;;;6280079;28;20466;-64
2021/07/01 04:55:12;;;;;;;3.63;1.67;;;17.80;97.40;;;;;;6278891;28;20473;-63
2021/07/01 04:58:16;;;;;;;3.53;1.93;;;17.90;97.00;;;;;;6278940;28;20481;-64
2021/07/01 05:01:20;;;;;;;2.37;2.07;;;18.10;97.10;;;;;;6278830;28;20481;-63
2021/07/01 05:04:23;;;;;;;2.40;1.60;;;18.20;96.50;;;;;;6279152;28;20478;-63
2021/07/01 05:07:27;;;;;;;1.60;1.50;;;18.20;96.50;;;;;;6279003;28;20465;-64
2021/07/01 05:10:31;;;;;;;5.27;1.93;;;18.20;96.60;;;;;;6279138;28;20480;-64
2021/07/01 05:13:35;;;;;;;2.80;1.43;;;18.30;96.30;;;;;;6273700;28;20484;-64
2021/07/01 05:16:39;;;;;;;2.93;1.43;;;18.30;96.30;;;;;;6279173;28;21019;-64
2021/07/01 05:19:42;;;;;;;2.67;1.30;;;18.50;96.40;;;;;;6278701;28;20500;-64
2021/07/01 05:22:45;;;;;;;3.27;1.93;;;18.60;96.10;;;;;;6278423;28;20973;-64
2021/07/01 05:25:49;;;;;;;3.07;1.87;;;18.70;95.70;;;;;;6278353;28;20489;-64
2021/07/01 05:28:54;;;;;;;2.73;1.70;;;18.90;95.50;;;;;;6278667;28;20478;-64
2021/07/01 05:32:18;;;;;;;4.70;1.40;;;19.10;95.10;;;;;;6278110;28;20496;-64
2021/07/01 05:35:21;;;;;;;6.90;1.77;;;19.20;95.10;;;;;;6278288;28;20199;-64
2021/07/01 05:38:25;;;;;;;4.07;1.70;;;19.40;95.50;;;;;;6277735;28;20249;-64
2021/07/01 05:41:28;;;;;;;2.00;1.63;;;19.30;95.90;;;;;;6278141;28;20236;-63
2021/07/01 05:44:33;;;;;;;3.87;2.63;;;19.30;96.20;;;;;;6278112;28;20203;-64
2021/07/01 05:47:37;;;;;;;2.40;1.63;;;19.40;96.00;;;;;;6277749;28;20246;-64
2021/07/01 05:50:46;;;;;;;2.47;1.60;;;19.60;95.80;;;;;;6276769;28;20687;-64
2021/07/01 05:53:56;;;;;;;3.30;1.80;;;19.70;95.70;;;;;;6252419;28;20243;-64
2021/07/01 05:57:00;;;;;;;3.00;1.40;;;19.90;94.60;;;;;;6253576;28;20791;-64
2021/07/01 06:00:06;;;;;;;2.07;1.73;;;20.10;94.10;;;;;;6252906;28;20290;-64
2021/07/01 06:03:11;;;;;;;7.80;2.17;;;20.10;94.60;;;;;;6253143;28;20232;-64
2021/07/01 06:06:14;;;;;;;5.00;1.70;;;20.20;94.50;;;;;;6252431;28;20583;-63
2021/07/01 06:09:22;;;;;;;4.10;1.63;;;20.20;94.30;;;;;;6272022;28;20243;-63
2021/07/01 06:12:29;;;;;;;7.50;2.13;;;20.30;94.30;;;;;;6276690;28;20219;-64
2021/07/01 06:15:35;;;;;;;2.47;1.90;;;20.60;93.70;;;;;;6274258;28;20232;-64
2021/07/01 06:18:41;;;;;;;2.93;1.67;;;21.20;92.70;;;;;;6277003;28;20227;-64
2021/07/01 06:21:44;;;;;;;1.17;0.87;;;21.90;90.10;;;;;;6277527;28;20231;-63
2021/07/01 06:24:49;;;;;;;1.50;0.90;;;22.50;80.10;;;;;;6276776;28;20629;-63
2021/07/01 06:27:53;;;;;;;1.57;1.00;;;23.10;74.00;;;;;;6277517;28;20227;-64
2021/07/01 06:30:58;;;;;;;4.57;1.20;;;23.90;70.10;;;;;;6276512;28;20227;-64
2021/07/01 06:34:01;;;;;;;1.90;1.00;;;24.70;66.40;;;;;;6276830;28;20219;-63
2021/07/01 06:37:06;;;;;;;0.73;0.47;;;25.40;67.30;;;;;;6276426;28;20241;-64
2021/07/01 06:40:11;;;;;;;1.90;0.80;;;25.50;60.10;;;;;;6276253;28;20320;-64
2021/07/01 06:43:16;;;;;;;4.40;0.60;;;25.80;59.80;;;;;;6276205;28;20227;-64
2021/07/01 06:46:21;;;;;;;1.13;0.70;;;26.20;57.90;;;;;;6276324;28;20227;-63
2021/07/01 06:49:30;;;;;;;0.90;0.57;;;26.30;56.80;;;;;;6275953;28;20250;-64
2021/07/01 06:52:34;;;;;;;0.60;0.40;;;26.80;56.40;;;;;;6272759;28;20230;-63
2021/07/01 06:55:38;;;;;;;1.30;0.77;;;26.90;53.40;;;;;;6274526;28;20623;-64
2021/07/01 06:58:43;;;;;;;0.87;0.50;;;27.10;53.90;;;;;;6273452;28;20233;-66
2021/07/01 07:16:19;;;;;;;1.23;0.52;;;28.00;52.30;;;;;;6396476;27;20890;-67
2021/07/01 07:19:24;;;;;;;1.15;0.40;;;30.80;44.70;;;;;;6373320;27;20228;-72
2021/07/01 07:22:30;;;;;;;0.88;0.45;;;31.20;43.80;;;;;;6371034;27;20224;-65
2021/07/01 07:25:40;;;;;;;2.35;0.70;;;31.60;42.90;;;;;;6370587;27;20224;-65
2021/07/01 07:28:44;;;;;;;0.80;0.38;;;31.10;43.00;;;;;;6393392;27;20188;-67
2021/07/01 07:31:50;;;;;;;0.90;0.50;;;30.80;43.10;;;;;;6370137;27;20652;-65
2021/07/01 07:34:54;;;;;;;0.77;0.40;;;30.60;42.40;;;;;;6368493;28;20266;-67
2021/07/01 07:37:59;;;;;;;0.90;0.50;;;30.80;42.30;;;;;;6370800;27;20528;-64
2021/07/01 07:41:02;;;;;;;3.90;1.40;;;31.30;41.80;;;;;;6373639;27;20215;-64
2021/07/01 07:44:06;;;;;;;7.35;1.42;;;32.10;41.30;;;;;;6397284;27;20572;-72
2021/07/01 07:47:12;;;;;;;4.43;1.05;;;32.50;40.60;;;;;;6394177;27;20228;-72
2021/07/01 07:50:15;;;;;;;2.50;0.80;;;33.10;39.20;;;;;;6371205;27;20548;-68
2021/07/01 07:53:24;;;;;;;9.73;2.22;;;32.80;38.70;;;;;;6370458;27;20231;-65
2021/07/01 07:56:36;;;;;;;1.33;0.50;;;32.60;39.40;;;;;;6370918;27;20236;-67
2021/07/01 07:59:43;;;;;;;1.55;0.70;;;32.30;39.10;;;;;;6380669;27;20672;-66
2021/07/01 08:02:51;;;;;;;1.27;0.90;;;31.80;39.70;;;;;;6385137;27;20553;-65
2021/07/01 08:05:57;;;;;;;1.63;0.70;;;31.50;40.50;;;;;;6369823;27;20228;-65
2021/07/01 08:09:04;;;;;;;1.50;0.57;;;31.10;40.50;;;;;;6379812;27;20211;-65
2021/07/01 08:12:08;;;;;;;1.27;0.60;;;30.60;41.30;;;;;;6381717;27;20220;-65
2021/07/01 08:15:13;;;;;;;1.57;0.40;;;30.30;41.60;;;;;;6364731;27;20573;-65
2021/07/01 08:18:31;;;;;;;1.10;0.30;;;29.90;42.40;;;;;;6353530;28;20248;-64
2021/07/01 08:21:34;;;;;;;0.60;0.30;;;29.70;42.60;;;;;;6353428;28;20240;-66
2021/07/01 08:24:39;;;;;;;0.73;0.50;;;29.00;42.20;;;;;;6352571;28;20231;-65
2021/07/01 08:27:43;;;;;;;2.87;0.40;;;28.60;43.50;;;;;;6353031;28;20253;-66
2021/07/01 08:30:46;;;;;;;0.70;0.33;;;28.50;44.40;;;;;;6352971;28;20240;-66
2021/07/01 08:33:51;;;;;;;4.13;0.63;;;28.20;44.50;;;;;;6351987;28;20568;-65
2021/07/01 08:36:55;;;;;;;0.80;0.60;;;27.90;45.60;;;;;;6352167;27;20229;-64
2021/07/01 08:40:01;;;;;;;0.60;0.37;;;27.80;45.10;;;;;;6343313;28;20217;-64
2021/07/01 08:43:07;;;;;;;0.60;0.33;;;27.30;45.10;;;;;;6327069;28;20232;-64
2021/07/01 08:46:15;;;;;;;1.30;0.47;;;26.90;45.40;;;;;;6327024;28;20233;-64
2021/07/01 08:49:34;;;;;;;3.90;0.73;;;26.90;47.00;;;;;;6326801;28;20542;-64
2021/07/01 08:52:47;;;;;;;0.90;0.50;;;27.00;46.30;;;;;;6351710;28;20224;-63
2021/07/01 08:56:03;;;;;;;0.60;0.40;;;27.20;45.50;;;;;;6350667;28;20233;-65
2021/07/01 08:59:08;;;;;;;1.47;0.53;;;27.40;45.80;;;;;;6356308;27;20672;-65
2021/07/01 09:02:14;;;;;;;1.40;0.50;;;27.40;46.00;;;;;;6369042;27;20593;-65
2021/07/01 09:05:19;;;;;;;1.30;0.53;;;27.50;45.40;;;;;;6351045;28;20254;-65
2021/07/01 09:08:28;;;;;;;1.37;0.60;;;27.30;45.10;;;;;;6358059;27;20228;-65
2021/07/01 09:11:36;;;;;;;0.70;0.30;;;26.90;46.40;;;;;;6365983;27;20221;-66
2021/07/01 09:14:41;;;;;;;0.90;0.60;;;27.00;45.70;;;;;;6351002;28;20299;-66
2021/07/01 09:17:48;;;;;;;0.90;0.60;;;27.10;46.40;;;;;;6361292;27;20285;-64
2021/07/01 09:20:53;;;;;;;1.00;0.50;;;26.90;45.90;;;;;;6365243;27;20220;-64
2021/07/01 09:24:00;;;;;;;0.90;0.50;;;26.80;46.20;;;;;;6341537;28;20240;-64
2021/07/01 09:27:08;;;;;;;0.90;0.70;;;26.60;46.70;;;;;;6362402;27;20228;-65
2021/07/01 09:30:13;;;;;;;1.03;0.50;;;26.80;47.40;;;;;;6345667;27;20233;-66
2021/07/01 09:33:16;;;;;;;0.70;0.40;;;27.10;46.80;;;;;;6327228;28;20232;-66
2021/07/01 09:36:24;;;;;;;0.70;0.50;;;26.80;45.90;;;;;;6323404;28;20232;-64
2021/07/01 09:39:27;;;;;;;0.80;0.40;;;26.40;47.40;;;;;;6328023;28;20224;-66
2021/07/01 09:42:32;;;;;;;2.30;0.83;;;26.00;47.70;;;;;;6365211;27;20451;-64
2021/07/01 09:45:37;;;;;;;0.90;0.40;;;25.70;49.50;;;;;;6356292;27;20225;-66
2021/07/01 09:48:47;;;;;;;1.40;0.93;;;25.70;50.00;;;;;;6348881;28;20221;-64
2021/07/01 09:51:54;;;;;;;5.50;0.90;;;25.60;49.40;;;;;;6348580;27;20221;-66
2021/07/01 09:55:01;;;;;;;1.30;0.90;;;25.50;50.10;;;;;;6348535;28;20221;-64
2021/07/01 09:58:10;;;;;;;3.40;0.80;;;25.60;50.80;;;;;;6368767;27;20217;-62
2021/07/01 10:01:24;;;;;;;1.40;0.67;;;25.70;50.60;;;;;;6350137;27;20247;-68
2021/07/01 10:04:36;;;;;;;0.90;0.50;;;25.60;50.50;;;;;;6344589;28;20222;-63
2021/07/01 10:07:49;;;;;;;1.47;0.67;;;25.60;50.00;;;;;;6348558;27;20201;-63
2021/07/01 10:10:53;;;;;;;1.53;0.80;;;25.50;50.20;;;;;;6369445;27;20201;-64
2021/07/01 10:13:58;;;;;;;2.03;1.07;;;25.40;50.90;;;;;;6348866;28;20226;-64
2021/07/01 10:17:09;;;;;;;1.10;0.60;;;25.30;50.30;;;;;;6348569;28;20229;-64
2021/07/01 10:20:13;;;;;;;1.00;0.53;;;25.40;51.00;;;;;;6349845;28;20657;-65
2021/07/01 10:23:23;;;;;;;0.90;0.50;;;25.40;50.10;;;;;;6355828;27;20692;-65
2021/07/01 10:26:26;;;;;;;0.90;0.60;;;25.40;50.70;;;;;;6366432;27;20720;-69
2021/07/01 10:29:37;;;;;;;0.70;0.47;;;25.30;51.00;;;;;;6349711;28;20224;-70
2021/07/01 10:32:43;;;;;;;1.37;0.60;;;25.10;51.30;;;;;;6350019;28;20231;-70
2021/07/01 10:35:46;;;;;;;0.70;0.50;;;24.80;51.60;;;;;;6342697;28;20233;-70
2021/07/01 10:38:52;;;;;;;0.60;0.50;;;24.60;52.00;;;;;;6350017;28;20230;-70
2021/07/01 10:42:01;;;;;;;0.60;0.40;;;24.20;52.80;;;;;;6349817;27;20243;-70
2021/07/01 10:45:12;;;;;;;1.70;0.50;;;24.10;53.00;;;;;;6349190;28;20690;-68
2021/07/01 10:48:18;;;;;;;0.60;0.47;;;24.00;53.40;;;;;;6349641;28;20229;-69
2021/07/01 10:51:24;;;;;;;1.63;0.60;;;24.00;53.30;;;;;;6349408;28;20237;-69
2021/07/01 10:54:29;;;;;;;2.63;0.80;;;23.90;53.50;;;;;;6350261;28;20244;-72
2021/07/01 10:57:46;;;;;;;1.53;0.67;;;23.90;55.20;;;;;;6349399;28;20241;-68
2021/07/01 11:00:53;;;;;;;1.60;0.53;;;23.80;53.30;;;;;;6349007;28;20229;-69
2021/07/01 11:04:07;;;;;;;3.80;1.00;;;23.80;53.90;;;;;;6349260;28;20225;-69
2021/07/01 11:07:11;;;;;;;1.97;1.10;;;23.70;54.50;;;;;;6348946;28;20237;-67
2021/07/01 11:10:32;;;;;;;1.40;1.00;;;23.70;54.50;;;;;;6349183;28;20225;-70
2021/07/01 11:13:38;;;;;;;0.90;0.70;;;23.60;54.40;;;;;;6346754;28;20683;-69
2021/07/01 11:16:45;;;;;;;0.80;0.50;;;23.60;55.20;;;;;;6350289;27;20625;-67
2021/07/01 11:19:49;;;;;;;0.70;0.60;;;23.40;55.60;;;;;;6372688;27;20208;-67
2021/07/01 11:22:55;;;;;;;2.83;0.90;;;23.20;56.50;;;;;;6349425;28;20216;-70
2021/07/01 11:26:00;;;;;;;1.83;0.80;;;23.10;56.90;;;;;;6349042;28;20236;-68
2021/07/01 11:29:08;;;;;;;0.93;0.70;;;23.10;57.90;;;;;;6348995;28;20236;-75
2021/07/01 11:32:22;;;;;;;6.83;1.00;;;23.00;58.40;;;;;;6354451;27;20229;-69
2021/07/01 11:35:25;;;;;;;3.57;0.90;;;22.40;68.20;;;;;;6366860;27;20677;-63
2021/07/01 11:38:30;;;;;;;1.97;1.10;;;22.00;72.30;;;;;;6349154;28;20232;-75
2021/07/01 11:41:36;;;;;;;1.00;0.90;;;21.80;75.70;;;;;;6356688;27;20225;-71
2021/07/01 11:44:40;;;;;;;2.67;0.90;;;21.50;79.50;;;;;;6364554;27;20232;-64
2021/07/01 11:47:45;;;;;;;2.00;0.90;;;21.20;81.80;;;;;;6348305;28;20233;-67
2021/07/01 11:50:50;;;;;;;2.83;2.63;;;21.20;83.80;;;;;;6359862;27;20564;-70
2021/07/01 11:53:53;;;;;;;2.80;1.50;;;21.00;88.00;;;;;;6367336;27;20225;-75
2021/07/01 11:56:59;;;;;;;2.80;1.30;;;21.00;89.60;;;;;;6353046;28;20234;-69
2021/07/01 12:00:03;;;;;;;0.90;0.80;;;20.90;91.20;;;;;;6353600;28;20229;-68
2021/07/01 12:03:07;;;;;;;1.10;0.90;;;20.90;92.40;;;;;;6353233;27;20229;-65
2021/07/01 12:06:30;;;;;;;1.33;1.13;;;21.00;93.00;;;;;;6366651;27;20228;-63
2021/07/01 12:09:35;;;;;;;1.33;1.20;;;21.00;94.00;;;;;;6361845;27;20226;-66
2021/07/01 12:12:41;;;;;;;1.57;1.17;;;20.90;94.10;;;;;;6352581;28;20229;-70
2021/07/01 12:16:02;;;;;;;1.20;0.83;;;20.90;94.40;;;;;;6345881;27;20221;-65
2021/07/01 12:19:06;;;;;;;1.10;1.00;;;20.90;94.40;;;;;;6374142;27;20609;-70
2021/07/01 12:22:09;;;;;;;2.27;1.00;;;20.70;94.00;;;;;;6355589;27;20560;-65
2021/07/01 12:25:13;;;;;;;1.23;1.00;;;20.50;94.30;;;;;;6350096;28;20277;-64
2021/07/01 12:28:22;;;;;;;1.23;1.00;;;20.60;95.20;;;;;;6351075;28;20256;-66
2021/07/01 12:31:26;;;;;;;2.00;0.93;;;20.70;95.00;;;;;;6375701;27;20220;-67
2021/07/01 12:34:30;;;;;;;1.70;1.60;;;20.80;95.40;;;;;;6351894;27;20233;-67
2021/07/01 12:38:09;;;;;;;2.70;1.77;;;20.80;95.50;;;;;;6351180;28;20696;-67
2021/07/01 12:41:13;;;;;;;2.60;2.07;;;20.60;96.00;;;;;;6351287;27;20225;-66
2021/07/01 12:44:20;;;;;;;4.47;1.30;;;20.60;96.20;;;;;;6350863;28;20225;-65
2021/07/01 12:47:32;;;;;;;1.40;1.30;;;20.50;96.10;;;;;;6346666;27;20228;-67
2021/07/01 12:50:36;;;;;;;1.40;1.30;;;20.50;96.70;;;;;;6365291;27;20518;-67
2021/07/01 12:53:39;;;;;;;1.67;1.57;;;20.40;97.30;;;;;;6350043;28;20225;-67
2021/07/01 12:56:42;;;;;;;2.40;1.50;;;20.40;97.40;;;;;;6350583;28;20696;-71
2021/07/01 12:59:48;;;;;;;2.03;1.57;;;20.50;97.90;;;;;;6338465;28;20216;-66
2021/07/01 13:03:00;;;;;;;2.23;2.03;;;20.50;98.20;;;;;;6338385;28;20223;-67
2021/07/01 13:06:04;;;;;;;2.00;1.70;;;20.60;98.30;;;;;;6330409;28;20221;-65
2021/07/01 13:09:07;;;;;;;2.80;1.70;;;20.70;98.50;;;;;;6364113;27;20220;-65
2021/07/01 13:12:12;;;;;;;3.30;1.90;;;20.50;98.50;;;;;;6363023;27;20601;-67
2021/07/01 13:15:19;;;;;;;2.00;1.57;;;20.50;99.00;;;;;;6340871;28;20244;-67
2021/07/01 13:18:23;;;;;;;1.80;1.50;;;20.60;98.90;;;;;;6325971;28;20237;-66
2021/07/01 13:21:26;;;;;;;2.40;1.50;;;20.80;98.60;;;;;;6326129;28;20222;-62
2021/07/01 13:24:29;;;;;;;1.97;1.60;;;20.90;98.40;;;;;;6325518;28;20950;-64
2021/07/01 13:27:42;;;;;;;1.70;1.60;;;21.20;98.50;;;;;;6340426;28;20236;-63
2021/07/01 13:30:47;;;;;;;2.23;1.93;;;21.40;97.60;;;;;;6350873;27;20807;-64
2021/07/01 13:34:04;;;;;;;2.33;1.30;;;21.50;96.90;;;;;;6328284;27;20230;-64
2021/07/01 13:37:20;;;;;;;1.10;1.00;;;21.90;96.30;;;;;;6346799;27;20232;-64
2021/07/01 13:40:28;;;;;;;1.30;0.90;;;22.10;93.50;;;;;;6350997;28;20236;-63
2021/07/01 13:43:31;;;;;;;1.60;0.93;;;22.40;92.70;;;;;;6350347;28;20230;-64
2021/07/01 13:46:36;;;;;;;3.27;1.20;;;22.50;91.90;;;;;;6350527;28;20240;-67
2021/07/01 13:49:39;;;;;;;2.60;1.00;;;22.70;91.00;;;;;;6330888;28;20217;-66
2021/07/01 13:52:45;;;;;;;0.70;0.70;;;22.70;90.70;;;;;;6350987;27;20205;-71
2021/07/01 13:55:50;;;;;;;1.57;1.33;;;22.70;90.00;;;;;;6373617;27;20224;-70
2021/07/01 13:58:53;;;;;;;5.00;1.60;;;22.40;89.70;;;;;;6345600;28;20214;-71
2021/07/01 14:01:58;;;;;;;1.00;0.80;;;22.60;90.30;;;;;;6325321;28;20245;-70
2021/07/01 14:05:01;;;;;;;1.10;0.70;;;22.80;90.10;;;;;;6341401;27;20562;-71
2021/07/01 14:08:06;;;;;;;3.53;1.57;;;22.90;90.10;;;;;;6348516;27;20236;-71
2021/07/01 14:11:11;;;;;;;1.37;0.70;;;22.90;90.60;;;;;;6333990;27;20697;-71
2021/07/01 14:14:15;;;;;;;1.50;0.97;;;22.90;90.20;;;;;;6348810;28;20248;-70
2021/07/01 14:17:21;;;;;;;2.87;0.90;;;23.00;89.70;;;;;;6339670;28;20234;-69
2021/07/01 14:20:26;;;;;;;1.07;0.90;;;23.10;89.10;;;;;;6341914;28;20226;-71
2021/07/01 14:23:31;;;;;;;1.73;1.63;;;23.10;89.10;;;;;;6335987;28;20229;-69
2021/07/01 14:26:43;;;;;;;2.60;1.20;;;23.00;89.50;;;;;;6335000;28;20229;-71
2021/07/01 14:29:46;;;;;;;2.60;0.90;;;22.90;90.00;;;;;;6359299;27;20229;-69
2021/07/01 14:32:53;;;;;;;2.03;0.93;;;23.00;89.40;;;;;;6365436;27;20225;-69
2021/07/01 14:36:02;;;;;;;1.23;1.13;;;23.10;88.50;;;;;;6349474;28;20570;-68
2021/07/01 14:39:07;;;;;;;1.27;1.03;;;23.30;88.00;;;;;;6349955;28;20241;-62
2021/07/01 14:42:12;;;;;;;1.00;0.90;;;23.20;87.70;;;;;;6349055;28;20229;-62
2021/07/01 14:45:16;;;;;;;2.17;0.80;;;23.40;86.00;;;;;;6349293;27;20255;-62
2021/07/01 14:48:30;;;;;;;2.90;0.67;;;23.60;84.50;;;;;;6348987;28;20686;-59
2021/07/01 14:51:34;;;;;;;1.20;0.97;;;23.30;84.50;;;;;;6349470;28;20221;-60
2021/07/01 14:54:41;;;;;;;1.60;0.77;;;23.30;82.90;;;;;;6349047;28;20698;-60
2021/07/01 14:57:57;;;;;;;1.10;0.70;;;23.40;82.10;;;;;;6366106;27;20673;-68
2021/07/01 15:01:00;;;;;;;1.13;1.03;;;23.50;79.90;;;;;;6353618;27;20226;-68
2021/07/01 15:04:06;;;;;;;1.10;1.00;;;23.00;81.30;;;;;;6349634;28;20229;-69
2021/07/01 15:07:11;;;;;;;1.53;1.00;;;22.80;82.80;;;;;;6348814;28;20225;-68
2021/07/01 15:10:16;;;;;;;0.90;0.60;;;22.40;83.10;;;;;;6349504;28;20226;-63
2021/07/01 15:13:24;;;;;;;0.83;0.67;;;22.50;82.50;;;;;;6348374;28;20229;-63
2021/07/01 15:16:27;;;;;;;1.30;0.80;;;22.80;83.10;;;;;;6373008;27;20266;-61
2021/07/01 15:19:32;;;;;;;3.23;0.90;;;22.90;83.00;;;;;;6349070;27;20233;-65
2021/07/01 15:22:37;;;;;;;1.80;0.87;;;22.80;83.70;;;;;;6346755;28;20214;-64
2021/07/01 15:25:42;;;;;;;2.07;0.87;;;22.60;83.60;;;;;;6348288;27;20617;-63
2021/07/01 15:28:45;;;;;;;1.83;0.90;;;22.70;85.00;;;;;;6375338;27;20706;-69
2021/07/01 15:31:48;;;;;;;2.03;0.80;;;22.90;83.30;;;;;;6351527;28;20198;-64
2021/07/01 15:34:53;;;;;;;1.10;1.00;;;22.80;85.10;;;;;;6352823;27;20303;-66
2021/07/01 15:37:57;;;;;;;3.53;1.23;;;23.00;86.00;;;;;;6352388;27;20232;-65
2021/07/01 15:41:00;;;;;;;2.13;0.80;;;22.90;81.60;;;;;;6351946;28;20231;-69
2021/07/01 15:44:03;;;;;;;1.33;0.80;;;23.20;81.70;;;;;;6351392;28;20229;-66
2021/07/01 15:47:08;;;;;;;2.07;1.10;;;23.20;81.30;;;;;;6351362;28;20577;-67
2021/07/01 15:50:13;;;;;;;2.27;1.10;;;23.10;83.00;;;;;;6355686;27;20224;-68
2021/07/01 15:53:16;;;;;;;1.13;0.60;;;23.20;82.40;;;;;;6376621;27;20568;-68
2021/07/01 15:56:19;;;;;;;1.70;0.83;;;23.00;82.70;;;;;;6370510;27;20259;-69
2021/07/01 15:59:24;;;;;;;1.13;0.93;;;22.90;83.20;;;;;;6350630;27;20221;-68
2021/07/01 16:02:30;;;;;;;3.33;0.90;;;23.00;83.50;;;;;;6351859;27;20240;-65
2021/07/01 16:05:36;;;;;;;1.20;0.93;;;23.30;84.10;;;;;;6350736;27;20230;-70
2021/07/01 16:08:40;;;;;;;3.37;0.60;;;23.40;82.80;;;;;;6349413;27;20263;-64
2021/07/01 16:11:44;;;;;;;0.93;0.60;;;23.50;81.80;;;;;;6350984;27;20229;-65
2021/07/01 16:14:47;;;;;;;2.23;0.97;;;23.40;81.90;;;;;;6349297;27;20229;-69
2021/07/01 16:17:53;;;;;;;3.47;1.00;;;23.30;82.20;;;;;;6350474;27;20226;-66
2021/07/01 16:20:58;;;;;;;2.00;0.80;;;23.40;82.90;;;;;;6350486;27;20547;-67